ADDS METAR Data INFO
IDs: Format: Raw Decoded Include TAF

Data at: 1351 UTC 17 Dec 2017

KSJN 171254Z AUTO 01004KT 10SM CLR M02/M16 A2994 RMK AO2 SLP124 T10171161 TSNO
KSJN 171154Z AUTO 32004KT 10SM OVC070 M01/M16 A2993 RMK AO2 SLP119 T10111161 10028 21022 50004 TSNO
KSJN 171054Z AUTO 10003KT 10SM CLR M01/M16 A2994 RMK AO2 SLP114 T10061161 TSNO
KSJN 170954Z AUTO 00000KT 10SM OVC110 00/M16 A2994 RMK AO2 SLP110 T00001161 TSNO
KSJN 170854Z AUTO 35003KT 10SM FEW060 BKN070 OVC100 02/M16 A2992 RMK AO2 SLP094 T00221156 53007 TSNO
KSJN 170754Z AUTO 19003KT 10SM SCT110 00/M16 A2991 RMK AO2 SLP098 T00001161 TSNO
KSJN 170654Z AUTO 13003KT 10SM CLR 00/M17 A2990 RMK AO2 SLP097 T00001172 401331128 TSNO
KSJN 170554Z AUTO 19005KT 10SM CLR 00/M17 A2989 RMK AO2 SLP107 T00001167 10072 21006 51014 TSNO
KSJN 170454Z AUTO 00000KT 10SM CLR 00/M16 A2988 RMK AO2 SLP113 T00001161 TSNO
KSJN 170354Z AUTO 14007KT 10SM CLR 01/M16 A2987 RMK AO2 SLP117 T00061156 TSNO
KSJN 170254Z AUTO 16004KT 10SM CLR 04/M14 A2985 RMK AO2 SLP116 T00441144 51014 TSNO
KSJN 170154Z AUTO 30004KT 10SM CLR 05/M14 A2984 RMK AO2 SLP110 T00501139 TSNO
KSJN 170054Z AUTO 27009KT 10SM CLR 07/M13 A2981 RMK AO2 SLP102 T00671133 TSNO
KSJN 162354Z AUTO 29009KT 10SM CLR 07/M14 A2980 RMK AO2 SLP098 T00721139 10133 20050 53013 TSNO
KSJN 162254Z AUTO 28014KT 10SM CLR 11/M16 A2977 RMK AO2 SLP072 T01061156 TSNO
KSJN 162154Z AUTO 27017KT 10SM CLR 12/M20 A2976 RMK AO2 SLP066 T01171200 TSNO
KSJN 162054Z AUTO 32010KT 10SM CLR 13/M21 A2975 RMK AO2 SLP057 T01281211 56023 TSNO
KSJN 161954Z AUTO 33009KT 10SM CLR 12/M21 A2976 RMK AO2 SLP056 T01171206 TSNO
KSJN 161854Z AUTO 00000KT 10SM CLR 11/M18 A2978 RMK AO2 SLP064 T01061183 TSNO
KSJN 161754Z AUTO 00000KT 10SM CLR 05/M20 A2983 RMK AO2 SLP095 T00501200 10050 21128 57016 TSNO
KSJN 161654Z AUTO 00000KT 10SM CLR 01/M20 A2985 RMK AO2 SLP110 T00061200 TSNO
KSJN 161554Z AUTO 07003KT 10SM CLR M03/M19 A2987 RMK AO2 SLP121 T10281189 TSNO
KSJN 161454Z AUTO 00000KT 10SM CLR M11/M21 A2989 RMK AO2 SLP149 T11061211 58020 TSNO
KSJN 161354Z AUTO 12004KT 10SM CLR M09/M21 A2992 RMK AO2 SLP152 T10941211 TSNO
KSJN 161254Z AUTO 00000KT 10SM CLR M12/M22 A2994 RMK AO2 SLP161 T11171217 TSNO
KSJN 161154Z AUTO 28004KT 10SM CLR M13/M22 A2996 RMK AO2 SLP153 T11281217 11028 21128 58016 TSNO
KSJN 161054Z AUTO 00000KT 10SM CLR M09/M20 A2999 RMK AO2 SLP150 T10891200 TSNO
KSJN 160954Z AUTO 00000KT 10SM CLR M09/M20 A3000 RMK AO2 SLP153 T10891200 TSNO
KSJN 160854Z AUTO 18003KT 10SM CLR M07/M21 A3001 RMK AO2 SLP159 T10721206 58025 TSNO
KSJN 160754Z AUTO 18006KT 10SM CLR M04/M19 A3004 RMK AO2 SLP163 T10391194 TSNO
KSJN 160654Z AUTO 16003KT 10SM CLR M03/M19 A3009 RMK AO2 SLP183 T10331189 401061133 TSNO
KSJN 160554Z AUTO 17005KT 10SM CLR M04/M17 A3010 RMK AO2 SLP195 T10391172 10083 21067 58006 TSNO
KSJN 160454Z AUTO 18007KT 10SM CLR M03/M17 A3012 RMK AO2 SLP205 T10281167 TSNO
KSJN 160354Z AUTO 16003KT 10SM CLR M02/M16 A3013 RMK AO2 SLP218 T10171161 TSNO
KSJN 160254Z AUTO 21004KT 10SM CLR M03/M18 A3012 RMK AO2 SLP232 T10331183 57009 TSNO
KSJN 160154Z AUTO 00000KT 7SM CLR M01/M18 A3013 RMK AO2 SLP226 T10111178 TSNO